Time;durP1;ratioP1;P1;durP2;ratioP2;P2;SDS_P1;SDS_P2;PMS_P1;PMS_P2;Temp;Humidity;BMP_temperature;BMP_pressure;BME280_temperature;BME280_humidity;BME280_pressure;Samples;Min_cycle;Max_cycle;Signal;HPM_P1;HPM_P2
2022/09/21 00:00:45;;;;;;;4.05;2.65;;;6.30;99.90;;;;;;5091728;28;20917;-46
2022/09/21 00:03:13;;;;;;;5.45;2.28;;;6.30;99.90;;;;;;5092578;28;20068;-48
2022/09/21 00:05:38;;;;;;;4.53;2.28;;;6.30;99.90;;;;;;5092547;28;20036;-46
2022/09/21 00:08:06;;;;;;;5.55;2.00;;;6.30;99.90;;;;;;5093022;28;20062;-48
2022/09/21 00:10:32;;;;;;;3.67;1.60;;;6.50;99.90;;;;;;5091155;28;20040;-49
2022/09/21 00:13:01;;;;;;;4.72;2.20;;;6.40;99.90;;;;;;5092277;28;20059;-45
2022/09/21 00:15:28;;;;;;;3.90;2.50;;;6.10;99.90;;;;;;5092289;28;20134;-49
2022/09/21 00:17:55;;;;;;;5.32;2.33;;;6.20;99.90;;;;;;5092250;28;20043;-50
2022/09/21 00:20:23;;;;;;;4.82;2.75;;;6.20;99.90;;;;;;5095417;27;20104;-49
2022/09/21 00:22:49;;;;;;;3.50;1.70;;;6.20;99.90;;;;;;5096602;27;20035;-50
2022/09/21 00:25:15;;;;;;;3.55;1.27;;;6.30;99.90;;;;;;5097932;27;20047;-49
2022/09/21 00:27:41;;;;;;;6.35;2.22;;;6.10;99.90;;;;;;5095681;27;20546;-50
2022/09/21 00:30:08;;;;;;;7.97;2.35;;;6.20;99.90;;;;;;5095179;27;20122;-50
2022/09/21 00:32:36;;;;;;;3.75;2.20;;;6.20;99.90;;;;;;5094896;27;20074;-46
2022/09/21 00:35:03;;;;;;;5.68;2.13;;;6.20;99.90;;;;;;5097011;27;20146;-48
2022/09/21 00:37:29;;;;;;;5.38;2.40;;;6.10;99.90;;;;;;5097145;27;20107;-49
2022/09/21 00:39:56;;;;;;;8.93;2.50;;;6.30;99.90;;;;;;5097109;28;20455;-49
2022/09/21 00:42:31;;;;;;;3.78;2.22;;;6.40;99.90;;;;;;5096121;27;20075;-50
2022/09/21 00:44:58;;;;;;;7.22;2.38;;;6.40;99.90;;;;;;5095586;27;20047;-46
2022/09/21 00:47:38;;;;;;;6.40;2.30;;;6.40;99.90;;;;;;5095252;27;20059;-49
2022/09/21 00:50:15;;;;;;;5.78;2.00;;;6.30;99.90;;;;;;5096271;27;20032;-50
2022/09/21 00:52:50;;;;;;;6.13;2.13;;;6.30;99.90;;;;;;5097072;27;20936;-50
2022/09/21 00:55:26;;;;;;;7.13;2.53;;;6.40;99.90;;;;;;5096698;27;20085;-48
2022/09/21 00:57:57;;;;;;;5.30;2.00;;;6.20;99.90;;;;;;5095311;27;20359;-49
2022/09/21 01:00:23;;;;;;;3.95;1.80;;;6.10;99.90;;;;;;5094702;28;20116;-54
2022/09/21 01:02:50;;;;;;;5.75;2.03;;;6.20;99.90;;;;;;5095396;27;20035;-50
2022/09/21 01:05:16;;;;;;;5.68;2.30;;;6.10;99.90;;;;;;5093174;27;20140;-49
2022/09/21 01:07:45;;;;;;;4.57;1.90;;;6.10;99.90;;;;;;5095227;27;20598;-49
2022/09/21 01:10:15;;;;;;;2.97;1.65;;;6.20;99.90;;;;;;5096146;27;20039;-48
2022/09/21 01:13:00;;;;;;;5.13;2.00;;;6.20;99.90;;;;;;5094155;27;20911;-48
2022/09/21 01:15:44;;;;;;;24.10;2.25;;;6.30;99.90;;;;;;5094519;27;20047;-46
2022/09/21 01:18:31;;;;;;;6.47;2.00;;;6.10;99.90;;;;;;5091883;28;20118;-49
2022/09/21 01:21:06;;;;;;;3.88;1.70;;;6.10;99.90;;;;;;5095273;27;21548;-50
2022/09/21 01:23:35;;;;;;;5.28;1.77;;;5.90;99.90;;;;;;5095253;27;20044;-51
2022/09/21 01:26:05;;;;;;;4.05;1.60;;;5.90;99.90;;;;;;5095054;27;20213;-48
2022/09/21 01:28:43;;;;;;;4.47;1.98;;;5.80;99.90;;;;;;5094526;27;20140;-50
2022/09/21 01:31:16;;;;;;;4.32;2.00;;;6.00;99.90;;;;;;5093993;27;20515;-49
2022/09/21 01:33:51;;;;;;;5.95;2.33;;;5.80;99.90;;;;;;5126896;27;20032;-50
2022/09/21 01:36:23;;;;;;;3.30;1.48;;;5.80;99.90;;;;;;5093526;27;20408;-48
2022/09/21 01:38:57;;;;;;;5.13;1.30;;;5.60;99.90;;;;;;5095533;27;20555;-51
2022/09/21 01:41:27;;;;;;;7.30;2.05;;;5.60;99.90;;;;;;5094037;27;20043;-50
2022/09/21 01:43:58;;;;;;;3.63;1.45;;;5.80;99.90;;;;;;5095708;27;20590;-51
2022/09/21 01:46:29;;;;;;;6.15;1.90;;;5.70;99.90;;;;;;5095029;27;20052;-48
2022/09/21 01:49:03;;;;;;;6.00;2.40;;;5.50;99.90;;;;;;5095328;27;20257;-48
2022/09/21 01:51:32;;;;;;;5.28;2.10;;;5.60;99.90;;;;;;5094641;27;20403;-47
2022/09/21 01:54:04;;;;;;;4.38;2.03;;;6.80;99.90;;;;;;5095155;27;20085;-51
2022/09/21 01:56:34;;;;;;;5.90;2.00;;;5.60;99.90;;;;;;5094701;27;20063;-51
2022/09/21 01:59:15;;;;;;;4.38;1.95;;;5.50;99.90;;;;;;5094230;27;20519;-50
2022/09/21 02:01:49;;;;;;;5.35;2.00;;;5.60;99.90;;;;;;5095074;27;20054;-46
2022/09/21 02:04:15;;;;;;;2.65;1.50;;;5.50;99.90;;;;;;5095015;27;20039;-50
2022/09/21 02:06:45;;;;;;;5.32;1.60;;;5.40;99.90;;;;;;5095074;27;20081;-48
2022/09/21 02:09:12;;;;;;;5.18;1.40;;;7.00;99.90;;;;;;5095188;27;20408;-48
2022/09/21 02:11:41;;;;;;;2.03;1.00;;;5.60;99.90;;;;;;5093706;28;20404;-50
2022/09/21 02:14:08;;;;;;;2.30;0.90;;;5.40;99.90;;;;;;5091884;27;20051;-48
2022/09/21 02:16:43;;;;;;;2.05;0.90;;;5.40;99.90;;;;;;5093860;27;20551;-50
2022/09/21 02:19:28;;;;;;;2.03;1.00;;;5.40;99.90;;;;;;5093785;27;20554;-48
2022/09/21 02:22:02;;;;;;;4.47;1.10;;;5.50;99.90;;;;;;5093193;28;20591;-49
2022/09/21 02:24:38;;;;;;;2.10;0.88;;;6.40;99.90;;;;;;5093587;27;20095;-50
2022/09/21 02:27:18;;;;;;;3.47;1.33;;;5.50;99.90;;;;;;5093804;27;20122;-48
2022/09/21 02:30:06;;;;;;;2.00;1.05;;;5.40;99.90;;;;;;5093154;27;20050;-48
2022/09/21 02:32:40;;;;;;;4.35;1.50;;;5.20;99.90;;;;;;5093570;27;20123;-47
2022/09/21 02:35:09;;;;;;;3.58;1.42;;;5.30;99.90;;;;;;5092891;27;20032;-49
2022/09/21 02:37:57;;;;;;;6.07;1.65;;;7.00;99.90;;;;;;5092543;27;20039;-48
2022/09/21 02:40:31;;;;;;;2.60;1.50;;;3.20;99.90;;;;;;5093630;27;20066;-49
2022/09/21 02:43:07;;;;;;;3.67;0.98;;;5.30;99.90;;;;;;5092784;27;20138;-50
2022/09/21 02:45:44;;;;;;;1.27;0.80;;;5.20;99.90;;;;;;5092289;27;20188;-48
2022/09/21 02:48:19;;;;;;;5.03;2.13;;;5.30;99.90;;;;;;5092996;27;20047;-48
2022/09/21 02:50:52;;;;;;;3.05;1.00;;;6.30;99.90;;;;;;5093825;27;20123;-48
2022/09/21 02:53:28;;;;;;;3.58;1.38;;;5.10;99.90;;;;;;5093367;27;20557;-47
2022/09/21 02:55:57;;;;;;;2.45;1.00;;;5.90;99.90;;;;;;5094283;27;20082;-48
2022/09/21 02:58:26;;;;;;;3.20;1.17;;;5.10;99.90;;;;;;5093050;27;20451;-45
2022/09/21 03:00:54;;;;;;;2.80;1.33;;;7.00;99.90;;;;;;5093510;27;20161;-47
2022/09/21 03:03:22;;;;;;;3.83;1.40;;;5.30;99.90;;;;;;5093255;28;20039;-45
2022/09/21 03:05:49;;;;;;;4.03;1.40;;;5.20;99.90;;;;;;5093839;27;20385;-46
2022/09/21 03:08:16;;;;;;;2.42;1.30;;;5.20;99.90;;;;;;5094309;28;20047;-47
2022/09/21 03:10:42;;;;;;;3.00;1.23;;;5.10;99.90;;;;;;5093234;28;20387;-49
2022/09/21 03:13:09;;;;;;;3.45;1.52;;;4.80;99.90;;;;;;5092855;27;20039;-48
2022/09/21 03:15:35;;;;;;;5.68;1.60;;;5.00;99.90;;;;;;5093520;27;20132;-46
2022/09/21 03:18:03;;;;;;;2.28;1.05;;;5.00;99.90;;;;;;5093965;28;20079;-45
2022/09/21 03:20:31;;;;;;;4.05;1.42;;;4.80;99.90;;;;;;5093832;27;20035;-50
2022/09/21 03:22:57;;;;;;;3.10;1.10;;;4.90;99.90;;;;;;5092595;28;20457;-50
2022/09/21 03:25:23;;;;;;;3.83;1.13;;;4.90;99.90;;;;;;5092384;27;20052;-48
2022/09/21 03:27:52;;;;;;;2.60;1.30;;;5.00;99.90;;;;;;5093212;28;20039;-48
2022/09/21 03:30:20;;;;;;;7.15;1.33;;;6.40;99.90;;;;;;5093097;27;20067;-45
2022/09/21 03:32:51;;;;;;;6.82;1.30;;;4.80;99.90;;;;;;5092357;28;20061;-48
2022/09/21 03:35:17;;;;;;;3.70;1.30;;;6.80;99.90;;;;;;5091242;27;20423;-49
2022/09/21 03:37:44;;;;;;;3.50;1.40;;;5.70;99.90;;;;;;5091587;28;20138;-48
2022/09/21 03:40:11;;;;;;;3.20;1.40;;;4.90;99.90;;;;;;5091632;28;20384;-50
2022/09/21 03:42:39;;;;;;;5.55;1.20;;;5.70;99.90;;;;;;5092216;28;20103;-47
2022/09/21 03:45:05;;;;;;;4.00;1.48;;;5.00;99.90;;;;;;5093032;28;20052;-51
2022/09/21 03:47:31;;;;;;;4.28;1.40;;;4.80;99.90;;;;;;5091717;28;20039;-47
2022/09/21 03:49:57;;;;;;;2.90;1.27;;;4.80;99.90;;;;;;5091723;28;20042;-50
2022/09/21 03:52:22;;;;;;;2.30;1.27;;;5.00;99.90;;;;;;5093576;28;20048;-50
2022/09/21 03:54:48;;;;;;;1.65;1.00;;;5.00;99.90;;;;;;5096793;27;20142;-47
2022/09/21 03:57:14;;;;;;;1.60;0.85;;;5.00;99.90;;;;;;5095551;27;20379;-50
2022/09/21 03:59:40;;;;;;;1.30;0.90;;;4.70;99.90;;;;;;5096394;27;20047;-48
2022/09/21 04:02:06;;;;;;;1.92;0.98;;;4.80;99.90;;;;;;5095782;27;20047;-49
2022/09/21 04:04:33;;;;;;;1.38;0.73;;;4.60;99.90;;;;;;5096714;27;20046;-48
2022/09/21 04:06:59;;;;;;;3.70;1.10;;;4.80;99.90;;;;;;5095958;27;20075;-49
2022/09/21 04:09:24;;;;;;;2.90;0.95;;;4.70;99.90;;;;;;5097268;28;20159;-45
2022/09/21 04:11:51;;;;;;;6.35;2.22;;;5.60;99.90;;;;;;5096787;27;20043;-48
2022/09/21 04:14:17;;;;;;;4.35;1.20;;;5.90;99.90;;;;;;5095491;28;20047;-48
2022/09/21 04:16:43;;;;;;;2.47;1.42;;;4.70;99.90;;;;;;5096741;27;20046;-46
2022/09/21 04:19:09;;;;;;;5.22;1.40;;;4.70;99.90;;;;;;5096686;27;20035;-45
2022/09/21 04:21:34;;;;;;;3.25;1.20;;;4.60;99.90;;;;;;5095056;28;20143;-47
2022/09/21 04:24:00;;;;;;;2.75;0.90;;;4.70;99.90;;;;;;5095412;28;20594;-48
2022/09/21 04:26:33;;;;;;;2.15;0.70;;;4.60;99.90;;;;;;5095245;27;20344;-50
2022/09/21 04:28:59;;;;;;;0.77;0.60;;;4.50;99.90;;;;;;5095620;27;20040;-50
2022/09/21 04:31:26;;;;;;;3.00;0.50;;;4.60;99.90;;;;;;5095342;27;20050;-49
2022/09/21 04:33:54;;;;;;;6.40;0.77;;;4.60;99.90;;;;;;5097186;27;20043;-49
2022/09/21 04:36:21;;;;;;;1.23;0.80;;;4.40;99.90;;;;;;5094651;27;20051;-48
2022/09/21 04:38:47;;;;;;;2.97;0.60;;;4.40;99.90;;;;;;5096594;27;20523;-49
2022/09/21 04:41:14;;;;;;;2.17;0.70;;;4.40;99.90;;;;;;5096718;27;20039;-48
2022/09/21 04:43:47;;;;;;;0.98;0.57;;;4.40;99.90;;;;;;5097280;27;20084;-50
2022/09/21 04:46:15;;;;;;;2.05;0.70;;;4.40;99.90;;;;;;5096772;27;20126;-49
2022/09/21 04:48:41;;;;;;;1.83;0.80;;;4.40;99.90;;;;;;5094909;27;20046;-49
2022/09/21 04:51:08;;;;;;;3.17;0.93;;;4.40;99.90;;;;;;5094936;28;20036;-47
2022/09/21 04:53:36;;;;;;;1.48;0.80;;;4.50;99.90;;;;;;5095349;27;20043;-49
2022/09/21 04:56:03;;;;;;;3.60;0.90;;;4.40;99.90;;;;;;5095956;27;20047;-50
2022/09/21 04:58:29;;;;;;;2.30;0.70;;;4.50;99.90;;;;;;5095408;28;20325;-48
2022/09/21 05:00:55;;;;;;;4.43;1.00;;;4.50;99.90;;;;;;5094959;27;20047;-50
2022/09/21 05:03:22;;;;;;;5.72;0.77;;;4.40;99.90;;;;;;5094141;27;20040;-50
2022/09/21 05:05:56;;;;;;;4.63;1.50;;;4.40;99.90;;;;;;5095028;27;20536;-46
2022/09/21 05:11:11;;;;;;;3.67;1.40;;;4.30;99.90;;;;;;5096344;27;20119;-46
2022/09/21 05:13:38;;;;;;;4.53;1.50;;;4.30;99.90;;;;;;5095476;27;20039;-46
2022/09/21 05:16:04;;;;;;;2.00;1.20;;;4.30;99.90;;;;;;5094480;27;20044;-44
2022/09/21 05:18:30;;;;;;;3.33;1.45;;;4.40;99.90;;;;;;5095892;27;20024;-48
2022/09/21 05:20:57;;;;;;;7.03;1.40;;;4.40;99.90;;;;;;5095528;27;20051;-47
2022/09/21 05:23:24;;;;;;;7.80;1.70;;;4.40;99.90;;;;;;5093933;27;20048;-47
2022/09/21 05:25:50;;;;;;;7.43;2.35;;;4.30;99.90;;;;;;5094064;27;20043;-48
2022/09/21 05:28:19;;;;;;;4.47;1.60;;;4.50;99.90;;;;;;5094328;27;20035;-46
2022/09/21 05:31:13;;;;;;;2.92;1.50;;;4.50;99.90;;;;;;5094344;28;21084;-48
2022/09/21 05:33:43;;;;;;;2.15;1.30;;;4.30;99.90;;;;;;5067756;28;20090;-45
2022/09/21 05:36:34;;;;;;;13.65;1.70;;;4.30;99.90;;;;;;5093711;27;20122;-47
2022/09/21 05:39:00;;;;;;;3.22;1.23;;;4.20;99.90;;;;;;5094439;27;20403;-47
2022/09/21 05:41:26;;;;;;;2.92;1.63;;;4.50;99.90;;;;;;5096173;27;20059;-48
2022/09/21 05:43:51;;;;;;;4.30;2.10;;;4.40;99.90;;;;;;5094276;27;20047;-46
2022/09/21 05:46:19;;;;;;;4.85;2.20;;;4.50;99.90;;;;;;5094513;28;20035;-48
2022/09/21 05:49:01;;;;;;;6.97;2.70;;;4.50;99.90;;;;;;5093963;27;20134;-48
2022/09/21 05:51:53;;;;;;;4.22;2.17;;;4.70;99.90;;;;;;5095001;28;21365;-45
2022/09/21 05:54:34;;;;;;;3.92;2.03;;;4.50;99.90;;;;;;5095299;27;20031;-47
2022/09/21 05:57:04;;;;;;;5.05;2.15;;;4.70;99.90;;;;;;5094662;27;20196;-44
2022/09/21 06:00:21;;;;;;;5.85;2.30;;;4.70;99.90;;;;;;5093989;28;20490;-49
2022/09/21 06:03:01;;;;;;;3.97;1.92;;;4.90;99.90;;;;;;5050984;28;20045;-49
2022/09/21 06:05:27;;;;;;;5.80;2.33;;;4.90;99.90;;;;;;5086144;27;20048;-47
2022/09/21 06:07:53;;;;;;;4.65;2.10;;;5.00;99.90;;;;;;5093665;27;20121;-48
2022/09/21 06:10:19;;;;;;;5.97;2.63;;;5.10;99.90;;;;;;5094455;27;20118;-47
2022/09/21 06:12:44;;;;;;;3.83;2.15;;;5.00;99.90;;;;;;5093997;28;20400;-46
2022/09/21 06:15:12;;;;;;;6.15;3.33;;;6.40;99.90;;;;;;5093122;28;20059;-49
2022/09/21 06:17:38;;;;;;;4.15;2.28;;;5.60;99.90;;;;;;5092394;28;20050;-50
2022/09/21 06:20:06;;;;;;;6.35;2.58;;;5.90;99.90;;;;;;5093974;27;20504;-50
2022/09/21 06:22:32;;;;;;;7.30;2.92;;;5.80;99.90;;;;;;5093787;27;20054;-46
2022/09/21 06:24:58;;;;;;;6.15;3.03;;;6.60;99.90;;;;;;5092281;28;20039;-50
2022/09/21 06:27:23;;;;;;;6.72;3.00;;;6.60;99.90;;;;;;5092644;28;20035;-46
2022/09/21 06:29:49;;;;;;;6.05;2.25;;;7.00;99.90;;;;;;5093704;28;20396;-49
2022/09/21 06:32:15;;;;;;;5.55;2.47;;;7.20;99.90;;;;;;5092564;27;20505;-48
2022/09/21 06:34:41;;;;;;;5.88;2.38;;;7.20;99.90;;;;;;5092225;28;20154;-50
2022/09/21 06:37:08;;;;;;;5.65;2.58;;;7.50;99.90;;;;;;5093563;27;20050;-49
2022/09/21 06:39:34;;;;;;;5.85;2.28;;;7.90;99.90;;;;;;5093533;27;20040;-48
2022/09/21 06:41:59;;;;;;;5.30;2.30;;;8.30;99.90;;;;;;5093719;27;20059;-48
2022/09/21 06:44:25;;;;;;;6.55;2.70;;;11.40;99.90;;;;;;5093384;27;20047;-50
2022/09/21 06:46:51;;;;;;;5.60;2.42;;;9.80;99.90;;;;;;5091919;28;20146;-48
2022/09/21 06:49:17;;;;;;;7.15;2.67;;;12.50;99.90;;;;;;5090287;28;20080;-49
2022/09/21 06:51:43;;;;;;;8.90;2.78;;;11.00;93.90;;;;;;5091848;27;20118;-48
2022/09/21 06:54:08;;;;;;;12.43;3.10;;;11.20;85.40;;;;;;5093804;27;20079;-49
2022/09/21 06:56:34;;;;;;;6.60;2.83;;;11.00;78.80;;;;;;5094285;27;20470;-48
2022/09/21 06:59:00;;;;;;;13.50;3.25;;;11.70;81.60;;;;;;5092946;27;20383;-49
2022/09/21 07:01:26;;;;;;;7.82;2.90;;;11.00;83.80;;;;;;5091551;28;20046;-50
2022/09/21 07:03:52;;;;;;;8.23;3.38;;;11.10;92.90;;;;;;5091142;27;20184;-48
2022/09/21 07:06:19;;;;;;;8.50;3.17;;;11.30;90.20;;;;;;5091745;27;20054;-49
2022/09/21 07:08:51;;;;;;;11.15;2.88;;;11.70;91.50;;;;;;5091815;27;20534;-49
2022/09/21 07:11:16;;;;;;;8.75;2.50;;;11.80;87.60;;;;;;5092593;27;20063;-48
2022/09/21 07:13:42;;;;;;;6.00;2.70;;;12.30;87.80;;;;;;5092030;28;20130;-49
2022/09/21 07:16:09;;;;;;;10.65;2.80;;;12.90;80.80;;;;;;5092413;27;20046;-47
2022/09/21 07:18:37;;;;;;;8.00;2.78;;;13.50;57.50;;;;;;5092832;27;21383;-48
2022/09/21 07:21:05;;;;;;;5.82;2.63;;;14.10;34.00;;;;;;5091421;28;20301;-50
2022/09/21 07:23:31;;;;;;;6.85;2.40;;;14.60;13.00;;;;;;5090515;27;20108;-50
2022/09/21 07:26:04;;;;;;;7.40;2.60;;;14.80;12.80;;;;;;5091694;28;20507;-49
2022/09/21 07:28:30;;;;;;;7.32;2.40;;;15.20;1.00;;;;;;5090861;28;20578;-47
2022/09/21 07:30:57;;;;;;;11.32;3.35;;;15.30;1.00;;;;;;5092484;27;20615;-49
2022/09/21 07:33:24;;;;;;;6.90;2.13;;;16.80;1.00;;;;;;5091664;28;20054;-50
2022/09/21 07:35:55;;;;;;;10.52;2.70;;;14.80;1.00;;;;;;5092047;28;20118;-49
2022/09/21 07:38:22;;;;;;;7.63;2.60;;;14.80;1.00;;;;;;5092013;27;20111;-47
2022/09/21 07:40:47;;;;;;;6.95;2.58;;;14.50;1.00;;;;;;5091910;28;20081;-49
2022/09/21 07:43:13;;;;;;;8.02;2.38;;;14.30;1.00;;;;;;5092755;28;20127;-49
2022/09/21 07:45:39;;;;;;;8.65;2.63;;;14.40;22.80;;;;;;5091041;28;20152;-50
2022/09/21 07:48:05;;;;;;;9.20;2.40;;;14.40;24.10;;;;;;5091595;28;20055;-47
2022/09/21 07:50:35;;;;;;;6.53;2.45;;;14.70;9.60;;;;;;5092274;28;20040;-49
2022/09/21 07:53:02;;;;;;;6.20;2.65;;;14.70;1.00;;;;;;5090350;28;20046;-50
2022/09/21 07:55:28;;;;;;;8.25;2.63;;;15.20;2.40;;;;;;5091052;28;20044;-50
2022/09/21 08:00:39;;;;;;;6.38;2.33;;;15.20;1.00;;;;;;5091173;28;20039;-49
2022/09/21 08:03:05;;;;;;;10.10;2.17;;;15.30;1.00;;;;;;5091994;28;20039;-49
2022/09/21 08:05:32;;;;;;;4.88;2.25;;;15.30;1.00;;;;;;5092300;28;20051;-47
2022/09/21 08:07:58;;;;;;;7.57;1.98;;;16.50;1.00;;;;;;5090800;28;20412;-48
2022/09/21 08:10:28;;;;;;;9.00;2.50;;;15.10;1.00;;;;;;5091318;28;20032;-46
2022/09/21 08:12:55;;;;;;;6.03;1.63;;;14.70;1.00;;;;;;5092135;28;20039;-48
2022/09/21 08:15:20;;;;;;;9.65;1.90;;;14.80;1.00;;;;;;5091709;28;20043;-47
2022/09/21 08:17:46;;;;;;;11.68;1.95;;;14.60;1.00;;;;;;5091794;28;20035;-49
2022/09/21 08:20:12;;;;;;;9.52;1.77;;;14.40;1.00;;;;;;5090586;28;20042;-50
2022/09/21 08:22:39;;;;;;;7.78;1.65;;;14.30;1.00;;;;;;5090626;28;20199;-49
2022/09/21 08:25:05;;;;;;;13.23;1.92;;;14.30;1.00;;;;;;5091971;28;20074;-48
2022/09/21 08:27:31;;;;;;;6.50;1.88;;;14.10;1.00;;;;;;5092220;28;20044;-48
2022/09/21 08:29:56;;;;;;;7.50;1.55;;;14.10;1.00;;;;;;5090898;28;20096;-48
2022/09/21 08:32:22;;;;;;;7.53;1.35;;;14.20;1.00;;;;;;5090439;28;20055;-48
2022/09/21 08:34:48;;;;;;;14.77;1.65;;;14.20;1.00;;;;;;5091900;28;20603;-49
2022/09/21 08:37:14;;;;;;;7.00;1.85;;;14.20;1.00;;;;;;5092342;28;20044;-48
2022/09/21 08:39:40;;;;;;;6.00;1.23;;;14.10;1.00;;;;;;5093424;27;20035;-48
2022/09/21 08:42:09;;;;;;;9.27;1.50;;;14.10;1.00;;;;;;5095757;27;20113;-50
2022/09/21 08:44:58;;;;;;;4.63;1.08;;;14.20;1.00;;;;;;5095334;27;20042;-49
2022/09/21 08:47:37;;;;;;;6.60;1.10;;;14.20;1.00;;;;;;5094718;27;20040;-48
2022/09/21 08:50:05;;;;;;;5.50;1.10;;;14.30;1.00;;;;;;5094342;27;20044;-45
2022/09/21 08:52:32;;;;;;;7.53;1.77;;;14.30;1.00;;;;;;5093859;27;20070;-48
2022/09/21 08:55:01;;;;;;;4.95;1.00;;;14.20;1.00;;;;;;5094933;27;20054;-49
2022/09/21 08:57:32;;;;;;;7.22;1.52;;;15.50;1.00;;;;;;5095146;27;20972;-47
2022/09/21 09:00:00;;;;;;;8.68;1.60;;;16.60;1.00;;;;;;5095602;27;20059;-46
2022/09/21 09:02:38;;;;;;;4.28;1.10;;;14.70;1.00;;;;;;5093122;27;20049;-48
2022/09/21 09:05:25;;;;;;;6.05;1.10;;;14.60;1.00;;;;;;5093117;28;20404;-50
2022/09/21 09:08:18;;;;;;;8.38;0.90;;;14.50;1.00;;;;;;5093593;27;20167;-48
2022/09/21 09:10:58;;;;;;;7.10;1.35;;;14.60;1.00;;;;;;5093480;28;20051;-47
2022/09/21 09:13:45;;;;;;;5.63;0.93;;;16.20;1.00;;;;;;5095527;27;20035;-49
2022/09/21 09:16:32;;;;;;;7.10;1.63;;;14.80;1.00;;;;;;5095148;27;20051;-47
2022/09/21 09:19:19;;;;;;;5.35;1.27;;;14.80;1.00;;;;;;5093729;27;20031;-48
2022/09/21 09:21:45;;;;;;;3.65;0.73;;;14.60;1.00;;;;;;5093564;27;20519;-47
2022/09/21 09:24:40;;;;;;;5.57;0.93;;;15.00;1.00;;;;;;5093473;28;20555;-46
2022/09/21 09:27:18;;;;;;;8.52;1.17;;;14.70;99.90;;;;;;5089708;27;20104;-49
2022/09/21 09:29:47;;;;;;;12.50;1.30;;;14.50;99.90;;;;;;5093659;27;20160;-48
2022/09/21 09:32:15;;;;;;;8.38;1.00;;;14.30;99.90;;;;;;5094469;27;20076;-48
2022/09/21 09:35:24;;;;;;;6.22;1.00;;;16.00;1.00;;;;;;5094268;27;20054;-48
2022/09/21 09:37:51;;;;;;;9.10;1.10;;;14.30;1.00;;;;;;5093614;27;20058;-47
2022/09/21 09:40:32;;;;;;;7.65;1.25;;;14.30;1.00;;;;;;5093146;27;20043;-45
2022/09/21 09:43:12;;;;;;;6.22;1.00;;;14.30;1.00;;;;;;5093974;27;20105;-48
2022/09/21 09:45:39;;;;;;;9.80;1.20;;;14.40;99.90;;;;;;5094758;27;20069;-47
2022/09/21 09:48:47;;;;;;;7.78;1.00;;;14.30;99.90;;;;;;5092931;27;20039;-48
2022/09/21 09:51:12;;;;;;;5.72;0.90;;;14.50;99.90;;;;;;5086542;27;20144;-47
2022/09/21 09:53:39;;;;;;;5.45;0.88;;;14.60;99.90;;;;;;5092018;27;20106;-48
2022/09/21 09:56:05;;;;;;;5.03;0.98;;;14.80;99.90;;;;;;5093114;27;20042;-49
2022/09/21 09:58:53;;;;;;;7.20;0.88;;;15.40;99.90;;;;;;5092188;27;20051;-49
2022/09/21 10:01:40;;;;;;;11.88;1.90;;;15.30;43.90;;;;;;5092223;27;20058;-49
2022/09/21 10:04:08;;;;;;;7.55;2.47;;;15.40;99.90;;;;;;5092837;27;20036;-44
2022/09/21 10:06:34;;;;;;;8.10;1.35;;;15.50;99.90;;;;;;5092830;28;20334;-48
2022/09/21 10:09:00;;;;;;;4.68;1.10;;;15.90;1.00;;;;;;5091672;27;20044;-48
2022/09/21 10:11:36;;;;;;;8.90;1.35;;;15.90;99.90;;;;;;5092843;27;20582;-48
2022/09/21 10:14:13;;;;;;;5.43;0.90;;;15.80;37.30;;;;;;5093270;28;20035;-49
2022/09/21 10:16:43;;;;;;;4.55;0.88;;;15.90;99.90;;;;;;5092919;27;20122;-48
2022/09/21 10:19:24;;;;;;;6.97;1.15;;;15.90;99.90;;;;;;5092954;27;20114;-49
2022/09/21 10:21:58;;;;;;;7.43;1.30;;;16.10;99.90;;;;;;5092136;27;20059;-48
2022/09/21 10:24:36;;;;;;;6.10;0.80;;;16.50;99.90;;;;;;5091456;27;20104;-46
2022/09/21 10:27:10;;;;;;;4.47;1.10;;;16.70;99.90;;;;;;5092931;28;20063;-48
2022/09/21 10:29:47;;;;;;;5.97;1.02;;;17.20;1.00;;;;;;5092699;27;20408;-50
2022/09/21 10:32:16;;;;;;;8.48;1.10;;;17.30;99.90;;;;;;5090832;28;20047;-47
2022/09/21 10:35:09;;;;;;;7.20;1.05;;;17.60;1.00;;;;;;5092523;27;20053;-46
2022/09/21 10:37:42;;;;;;;5.63;1.58;;;17.90;63.00;;;;;;5083799;27;20423;-46
2022/09/21 10:40:29;;;;;;;8.57;1.00;;;17.80;99.90;;;;;;5091728;27;20039;-50
2022/09/21 10:42:59;;;;;;;4.25;1.20;;;18.00;99.90;;;;;;5091311;27;20042;-50
2022/09/21 10:45:30;;;;;;;5.57;1.00;;;18.30;99.90;;;;;;5091848;27;20035;-48
2022/09/21 10:48:05;;;;;;;5.22;1.15;;;18.40;99.90;;;;;;5090772;27;20078;-49
2022/09/21 10:50:33;;;;;;;4.28;1.00;;;18.50;99.90;;;;;;5091445;28;20042;-50
2022/09/21 10:53:08;;;;;;;8.45;0.93;;;18.60;99.90;;;;;;5091228;27;20332;-48
2022/09/21 10:55:58;;;;;;;5.65;1.15;;;18.60;99.90;;;;;;5091740;28;20431;-46
2022/09/21 10:58:24;;;;;;;5.13;1.00;;;18.80;99.90;;;;;;5091783;27;20043;-45
2022/09/21 11:00:52;;;;;;;5.68;0.98;;;18.90;99.90;;;;;;5092155;27;20055;-51
2022/09/21 11:03:47;;;;;;;9.40;0.90;;;18.80;99.90;;;;;;5092016;28;20035;-48
2022/09/21 11:06:30;;;;;;;7.35;1.10;;;18.90;99.90;;;;;;5082308;27;20408;-51
2022/09/21 11:09:02;;;;;;;7.57;2.00;;;18.90;99.90;;;;;;5090762;27;20536;-50
2022/09/21 11:11:48;;;;;;;;;;;18.80;99.90;;;;;;5092609;27;20083;-48
2022/09/21 11:14:35;;;;;;;4.80;1.00;;;19.10;99.90;;;;;;5084073;27;21087;-48
2022/09/21 11:17:36;;;;;;;4.05;0.70;;;19.10;99.90;;;;;;5089410;27;20512;-49
2022/09/21 11:20:35;;;;;;;5.90;1.02;;;19.10;99.90;;;;;;5091448;27;20163;-49
2022/09/21 11:23:40;;;;;;;4.80;0.98;;;19.00;99.90;;;;;;5091203;27;20036;-48
2022/09/21 11:26:11;;;;;;;5.65;1.27;;;19.00;99.90;;;;;;5090572;27;20124;-47
2022/09/21 11:28:48;;;;;;;5.68;0.80;;;19.00;99.90;;;;;;5090521;28;20289;-48
2022/09/21 11:31:40;;;;;;;5.03;2.53;;;18.60;99.90;;;;;;5091086;27;20059;-49
2022/09/21 11:35:10;;;;;;;4.43;0.80;;;18.70;99.90;;;;;;5091022;28;20131;-48
2022/09/21 11:37:49;;;;;;;4.18;0.98;;;18.50;99.90;;;;;;5026748;28;20054;-49
2022/09/21 11:40:47;;;;;;;4.35;0.90;;;18.50;99.90;;;;;;5090902;28;20044;-49
2022/09/21 11:43:45;;;;;;;5.20;0.75;;;18.90;99.90;;;;;;5091500;27;20510;-49
2022/09/21 11:46:21;;;;;;;5.10;0.88;;;18.80;99.90;;;;;;5079455;28;20554;-48
2022/09/21 11:49:15;;;;;;;6.05;1.17;;;18.80;99.90;;;;;;5089784;28;20093;-45
2022/09/21 11:52:02;;;;;;;6.43;1.00;;;19.10;99.90;;;;;;5090357;28;20067;-46
2022/09/21 11:55:02;;;;;;;6.80;1.15;;;19.30;99.90;;;;;;5090783;28;20047;-46
2022/09/21 11:58:09;;;;;;;2.47;0.70;;;19.30;99.90;;;;;;5090967;28;20099;-48
2022/09/21 12:01:13;;;;;;;3.60;0.93;;;19.40;99.90;;;;;;5090478;28;20055;-47
2022/09/21 12:03:54;;;;;;;9.63;2.03;;;19.20;99.90;;;;;;5091380;28;20086;-48
2022/09/21 12:06:36;;;;;;;6.15;1.10;;;19.40;99.90;;;;;;5091839;28;20043;-47
2022/09/21 12:09:14;;;;;;;5.32;1.00;;;19.20;99.90;;;;;;5091075;28;20051;-47
2022/09/21 12:11:51;;;;;;;5.70;1.08;;;21.20;99.90;;;;;;5091630;28;20833;-48
2022/09/21 12:14:32;;;;;;;5.25;0.90;;;19.20;99.90;;;;;;5093145;27;20059;-45
2022/09/21 12:16:58;;;;;;;3.92;0.80;;;19.40;99.90;;;;;;5096101;27;20097;-47
2022/09/21 12:19:32;;;;;;;9.10;1.42;;;19.10;99.90;;;;;;5094719;27;20040;-47
2022/09/21 12:22:26;;;;;;;7.55;1.00;;;19.20;99.90;;;;;;5094351;27;20112;-49
2022/09/21 12:25:01;;;;;;;6.35;0.80;;;19.20;99.90;;;;;;5094819;27;20237;-46
2022/09/21 12:27:30;;;;;;;6.10;0.73;;;19.20;99.90;;;;;;5095779;27;20035;-47
2022/09/21 12:30:20;;;;;;;4.50;0.90;;;18.90;99.90;;;;;;5095556;27;20043;-46
2022/09/21 12:33:11;;;;;;;4.47;1.00;;;19.00;99.90;;;;;;5093595;27;20080;-47
2022/09/21 12:35:45;;;;;;;5.00;0.90;;;18.80;99.90;;;;;;5092903;27;20142;-47
2022/09/21 12:38:20;;;;;;;4.53;0.90;;;18.90;99.90;;;;;;5094384;27;20040;-50
2022/09/21 12:40:55;;;;;;;4.10;0.68;;;18.80;99.90;;;;;;5093262;27;20056;-48
2022/09/21 12:43:39;;;;;;;4.90;1.27;;;19.00;99.90;;;;;;5092710;27;20036;-48
2022/09/21 12:46:15;;;;;;;3.33;0.80;;;19.10;99.90;;;;;;5093110;27;20199;-46
2022/09/21 12:48:43;;;;;;;3.80;0.75;;;19.10;99.90;;;;;;5092693;27;20122;-49
2022/09/21 12:51:12;;;;;;;5.53;1.25;;;19.60;99.90;;;;;;5091972;27;20197;-48
2022/09/21 12:53:43;;;;;;;6.28;1.10;;;19.00;99.90;;;;;;5093768;27;20512;-45
2022/09/21 12:56:37;;;;;;;2.73;0.70;;;18.90;99.90;;;;;;5094867;27;20403;-49
2022/09/21 12:59:23;;;;;;;4.60;0.73;;;18.90;99.90;;;;;;5093339;27;20127;-46
2022/09/21 13:01:55;;;;;;;5.20;0.82;;;19.00;99.90;;;;;;5092606;28;20496;-48
2022/09/21 13:04:23;;;;;;;4.00;0.90;;;19.00;99.90;;;;;;5093830;27;20040;-48
2022/09/21 13:07:11;;;;;;;6.70;0.93;;;19.00;99.90;;;;;;5093949;27;20055;-49
2022/09/21 13:09:42;;;;;;;4.97;0.77;;;17.30;99.90;;;;;;5094146;27;20118;-50
2022/09/21 13:12:31;;;;;;;2.92;0.70;;;19.10;99.90;;;;;;5093121;27;20492;-48
2022/09/21 13:15:29;;;;;;;5.60;1.00;;;19.20;99.90;;;;;;5094381;27;20082;-50
2022/09/21 13:18:17;;;;;;;5.93;0.70;;;19.20;99.90;;;;;;5094454;27;20046;-50
2022/09/21 13:20:43;;;;;;;5.95;0.80;;;19.20;99.90;;;;;;5092962;28;20047;-46
2022/09/21 13:23:20;;;;;;;4.20;0.88;;;19.30;99.90;;;;;;5093485;27;20055;-48
2022/09/21 13:25:49;;;;;;;4.63;1.00;;;19.30;99.90;;;;;;5090926;27;20557;-46
2022/09/21 13:28:15;;;;;;;4.25;0.60;;;19.20;99.90;;;;;;5093545;27;20454;-49